createdAt,value
2022-12-29T00:01:27.878Z,62.64
2022-12-29T00:06:32.876Z,62.81
2022-12-29T00:11:36.022Z,62.89
2022-12-29T00:16:39.876Z,62.39
2022-12-29T00:22:09.803Z,62.81
2022-12-29T00:27:31.835Z,63.06
2022-12-29T00:32:52.533Z,62.67
2022-12-29T00:38:16.364Z,62.29
2022-12-29T00:43:36.841Z,63.29
2022-12-29T00:48:57.099Z,64.59
2022-12-29T00:54:01.403Z,65.80
2022-12-29T00:59:05.128Z,68.27
2022-12-29T01:04:08.841Z,69.64
2022-12-29T01:09:35.614Z,71.38
2022-12-29T01:14:39.293Z,71.57
2022-12-29T01:19:42.205Z,72.76
2022-12-29T01:24:46.484Z,73.03
2022-12-29T01:29:49.718Z,71.32
2022-12-29T01:34:52.656Z,71.37
2022-12-29T01:39:56.948Z,71.64
2022-12-29T01:45:02.578Z,72.23
2022-12-29T01:50:11.612Z,71.76
2022-12-29T01:55:16.923Z,71.73
2022-12-29T02:00:22.863Z,72.78
2022-12-29T02:05:30.787Z,72.78
2022-12-29T02:10:37.299Z,72.10
2022-12-29T02:15:56.296Z,71.84
2022-12-29T02:21:27.763Z,71.64
2022-12-29T02:26:46.602Z,72.03
2022-12-29T02:31:57.432Z,71.83
2022-12-29T02:37:05.521Z,71.04
2022-12-29T02:42:15.559Z,70.78
2022-12-29T02:47:27.044Z,70.12
2022-12-29T02:52:34.515Z,69.89
2022-12-29T02:57:37.904Z,70.26
2022-12-29T03:03:02.316Z,69.77
2022-12-29T03:08:13.635Z,68.31
2022-12-29T03:13:44.440Z,67.88
2022-12-29T03:19:02.562Z,67.43
2022-12-29T03:24:06.410Z,66.95
2022-12-29T03:29:11.809Z,66.55
2022-12-29T03:34:18.732Z,66.37
2022-12-29T03:39:24.805Z,67.03
2022-12-29T03:44:35.198Z,66.49
2022-12-29T03:49:40.459Z,67.01
2022-12-29T03:54:44.808Z,67.28
2022-12-29T03:59:48.698Z,66.91
2022-12-29T04:04:53.120Z,66.96
2022-12-29T04:09:56.171Z,67.12
2022-12-29T04:15:01.461Z,67.14
2022-12-29T04:20:24.735Z,67.38
2022-12-29T04:25:29.533Z,67.38
2022-12-29T04:30:33.779Z,67.35
2022-12-29T04:35:46.120Z,68.04
2022-12-29T04:40:50.270Z,68.00
2022-12-29T04:45:55.819Z,68.26
2022-12-29T04:51:06.231Z,68.10
2022-12-29T04:56:14.270Z,68.12
2022-12-29T05:01:17.573Z,69.08
2022-12-29T05:06:22.961Z,71.52
2022-12-29T05:11:26.521Z,71.42
2022-12-29T05:16:30.854Z,71.44
2022-12-29T05:21:35.757Z,70.80
2022-12-29T05:26:39.134Z,70.63
2022-12-29T05:31:47.811Z,70.71
2022-12-29T05:36:52.500Z,70.45
2022-12-29T05:41:55.555Z,70.40
2022-12-29T05:47:03.859Z,69.72
2022-12-29T05:52:20.690Z,70.22
2022-12-29T05:57:23.662Z,69.58
2022-12-29T06:02:39.225Z,70.49
2022-12-29T06:07:45.735Z,70.11
2022-12-29T06:12:51.328Z,70.15
2022-12-29T06:17:54.298Z,70.00
2022-12-29T06:22:58.698Z,70.17
2022-12-29T06:28:02.011Z,70.05
2022-12-29T06:33:05.132Z,69.66
2022-12-29T06:38:09.398Z,69.74
2022-12-29T06:43:12.479Z,69.32
2022-12-29T06:48:53.745Z,69.00
2022-12-29T06:53:58.081Z,69.94
2022-12-29T06:59:02.070Z,68.76
2022-12-29T07:04:05.180Z,68.94
2022-12-29T07:09:10.157Z,69.55
2022-12-29T07:14:13.285Z,69.30
2022-12-29T07:19:16.461Z,69.33
2022-12-29T07:24:21.544Z,69.39
2022-12-29T07:29:24.438Z,70.21
2022-12-29T07:34:27.331Z,69.87
2022-12-29T07:39:31.606Z,69.92
2022-12-29T07:44:34.553Z,69.54
2022-12-29T07:50:08.086Z,69.15
2022-12-29T07:55:12.809Z,69.20
2022-12-29T08:00:16.733Z,68.99
2022-12-29T08:05:20.256Z,67.97
2022-12-29T08:10:24.623Z,67.92
2022-12-29T08:15:32.285Z,67.70
2022-12-29T08:20:35.791Z,67.52
2022-12-29T08:25:40.129Z,67.15
2022-12-29T08:30:43.160Z,67.30
2022-12-29T08:35:46.734Z,66.19
2022-12-29T08:40:51.052Z,66.13
2022-12-29T08:45:54.166Z,65.84
2022-12-29T08:50:57.282Z,65.19
2022-12-29T08:56:05.469Z,65.38
2022-12-29T09:01:19.555Z,65.72
2022-12-29T09:06:22.743Z,65.06
2022-12-29T09:11:27.806Z,64.85
2022-12-29T09:16:30.880Z,65.17
2022-12-29T09:21:34.257Z,65.62
2022-12-29T09:26:43.426Z,65.81
2022-12-29T09:31:49.850Z,64.90
2022-12-29T09:36:52.833Z,65.26
2022-12-29T09:42:06.037Z,64.91
2022-12-29T09:47:13.721Z,65.22
2022-12-29T09:52:23.633Z,64.60
2022-12-29T09:57:31.653Z,64.35
2022-12-29T10:02:41.338Z,64.09
2022-12-29T10:07:52.799Z,63.73
2022-12-29T10:13:10.895Z,62.44
2022-12-29T10:18:34.464Z,61.93
2022-12-29T10:23:42.725Z,61.30
2022-12-29T10:28:49.848Z,61.92
2022-12-29T10:33:59.269Z,61.28
2022-12-29T10:39:09.339Z,61.16
2022-12-29T10:44:17.702Z,61.17
2022-12-29T10:49:22.555Z,61.27
2022-12-29T10:54:29.901Z,59.87
2022-12-29T10:59:36.489Z,61.15
2022-12-29T11:04:53.425Z,60.80
2022-12-29T11:09:56.644Z,60.71
2022-12-29T11:15:16.787Z,60.54
2022-12-29T11:20:35.985Z,60.46
2022-12-29T11:25:38.964Z,60.53
2022-12-29T11:30:43.849Z,60.82
2022-12-29T11:35:47.080Z,60.93
2022-12-29T11:40:50.722Z,60.74
2022-12-29T11:45:57.519Z,60.81
2022-12-29T11:51:01.709Z,60.37
2022-12-29T11:56:08.446Z,60.71
2022-12-29T12:01:19.224Z,60.54
2022-12-29T12:06:25.221Z,60.38
2022-12-29T12:11:37.332Z,60.54
2022-12-29T12:16:45.514Z,60.55
2022-12-29T12:21:53.955Z,60.27
2022-12-29T12:27:01.997Z,60.31
2022-12-29T12:32:16.338Z,60.28
2022-12-29T12:37:48.248Z,59.64
2022-12-29T12:43:00.333Z,59.73
2022-12-29T12:48:19.520Z,60.32
2022-12-29T12:53:35.997Z,59.23
2022-12-29T12:58:50.393Z,58.91
2022-12-29T13:04:15.342Z,59.01
2022-12-29T13:09:42.079Z,58.84
2022-12-29T13:14:56.476Z,58.91
2022-12-29T13:20:11.060Z,58.58
2022-12-29T13:25:28.967Z,58.69
2022-12-29T13:30:36.664Z,58.82
2022-12-29T13:35:57.961Z,58.39
2022-12-29T13:41:05.826Z,58.91
2022-12-29T13:46:12.184Z,59.01
2022-12-29T13:51:21.350Z,59.28
2022-12-29T13:56:36.436Z,59.31
2022-12-29T14:01:45.708Z,59.50
2022-12-29T14:07:05.042Z,59.96
2022-12-29T14:12:22.768Z,59.71
2022-12-29T14:17:25.675Z,59.29
2022-12-29T14:22:33.290Z,59.67
2022-12-29T14:27:53.439Z,59.86
2022-12-29T14:33:04.009Z,59.47
2022-12-29T14:38:17.279Z,60.12
2022-12-29T14:43:28.043Z,60.50
2022-12-29T14:48:44.365Z,60.77
2022-12-29T14:53:51.674Z,60.55
2022-12-29T14:58:56.274Z,60.61
2022-12-29T15:04:03.210Z,60.13
2022-12-29T15:09:18.552Z,60.14
2022-12-29T15:14:31.996Z,60.39
2022-12-29T15:19:34.924Z,61.06
2022-12-29T15:24:43.583Z,61.54
2022-12-29T15:29:48.137Z,61.48
2022-12-29T15:34:52.814Z,61.96
2022-12-29T15:39:58.094Z,60.93
2022-12-29T15:45:10.823Z,60.94
2022-12-29T15:50:22.314Z,60.54
2022-12-29T15:55:33.822Z,61.22
2022-12-29T16:00:38.668Z,61.13
2022-12-29T16:05:42.062Z,61.25
2022-12-29T16:10:46.325Z,62.02
2022-12-29T16:15:49.708Z,62.07
2022-12-29T16:20:55.389Z,61.80
2022-12-29T16:26:00.203Z,61.24
2022-12-29T16:31:06.229Z,62.35
2022-12-29T16:36:26.886Z,62.42
2022-12-29T16:41:34.177Z,62.67
2022-12-29T16:46:37.182Z,62.78
2022-12-29T16:51:41.512Z,62.83
2022-12-29T16:56:47.053Z,63.20
2022-12-29T17:01:50.171Z,64.01
2022-12-29T17:06:53.233Z,64.23
2022-12-29T17:12:05.253Z,64.53
2022-12-29T17:17:18.369Z,64.33
2022-12-29T17:22:26.147Z,64.64
2022-12-29T17:27:33.911Z,65.23
2022-12-29T17:32:36.892Z,65.87
2022-12-29T17:37:40.008Z,66.34
2022-12-29T17:42:47.956Z,66.76
2022-12-29T17:47:51.361Z,66.90
2022-12-29T17:53:00.806Z,66.56
2022-12-29T17:58:17.576Z,66.93
2022-12-29T18:03:25.136Z,67.52
2022-12-29T18:08:29.480Z,68.16
2022-12-29T18:13:43.937Z,68.36
2022-12-29T18:18:49.122Z,68.51
2022-12-29T18:23:52.116Z,69.38
2022-12-29T18:28:56.921Z,69.81
2022-12-29T18:34:02.198Z,69.97
2022-12-29T18:39:05.183Z,69.98
2022-12-29T18:44:13.859Z,70.00
2022-12-29T18:49:16.835Z,70.75
2022-12-29T18:54:28.220Z,70.64
2022-12-29T18:59:32.485Z,68.83
2022-12-29T19:04:35.590Z,69.18
2022-12-29T19:09:38.692Z,69.00
2022-12-29T19:14:43.063Z,69.27
2022-12-29T19:19:45.992Z,68.99
2022-12-29T19:24:48.894Z,68.56
2022-12-29T19:29:53.189Z,68.55
2022-12-29T19:34:56.110Z,68.28
2022-12-29T19:39:58.970Z,68.46
2022-12-29T19:45:03.591Z,67.96
2022-12-29T19:50:09.559Z,68.07
2022-12-29T19:55:15.379Z,66.73
2022-12-29T20:00:19.848Z,66.40
2022-12-29T20:05:22.742Z,66.64
2022-12-29T20:10:25.659Z,66.54
2022-12-29T20:15:29.896Z,66.41
2022-12-29T20:20:34.571Z,66.30
2022-12-29T20:25:46.423Z,66.63
2022-12-29T20:31:01.499Z,66.93
2022-12-29T20:36:08.693Z,67.60
2022-12-29T20:41:11.819Z,67.15
2022-12-29T20:46:20.754Z,67.50
2022-12-29T20:51:24.916Z,67.46
2022-12-29T20:56:30.204Z,67.16
2022-12-29T21:01:35.267Z,67.42
2022-12-29T21:06:38.309Z,67.86
2022-12-29T21:11:41.203Z,67.80
2022-12-29T21:16:45.567Z,68.43
2022-12-29T21:21:48.426Z,68.52
2022-12-29T21:26:51.435Z,68.63
2022-12-29T21:31:56.350Z,68.86
2022-12-29T21:37:00.608Z,69.01
2022-12-29T21:42:03.515Z,69.25
2022-12-29T21:47:07.901Z,69.30
2022-12-29T21:52:10.834Z,69.60
2022-12-29T21:57:35.745Z,70.41
2022-12-29T22:02:57.346Z,69.91
2022-12-29T22:08:18.132Z,71.03
2022-12-29T22:13:21.048Z,70.90
2022-12-29T22:18:25.272Z,71.07
2022-12-29T22:23:28.123Z,70.34
2022-12-29T22:28:31.045Z,70.84
2022-12-29T22:33:35.340Z,70.24
2022-12-29T22:38:38.208Z,70.31
2022-12-29T22:43:41.453Z,70.88
2022-12-29T22:48:45.731Z,71.14
2022-12-29T22:53:49.892Z,70.89
2022-12-29T22:58:52.883Z,70.61
2022-12-29T23:04:10.290Z,70.41
2022-12-29T23:09:22.984Z,70.72
2022-12-29T23:14:26.119Z,70.39
2022-12-29T23:19:30.356Z,70.27
2022-12-29T23:24:33.253Z,70.46
2022-12-29T23:29:36.169Z,70.11
2022-12-29T23:34:40.446Z,70.19
2022-12-29T23:39:43.378Z,70.11
2022-12-29T23:44:46.305Z,69.97
2022-12-29T23:49:50.612Z,69.84
2022-12-29T23:54:53.547Z,69.90
2022-12-29T23:59:56.428Z,69.79
